Tuesday, May 03, 2016
01:10 UTC
  |  Log In   |  Register Free
Airport Search:

Orlando Sanford International Airport
(KSFB)

FAA data valid effective Mar 31 2016 - May 26 2016 (unless otherwise noted).

 
 
 
 
 
 
 
 
 
 
 
 
 
 
Current Aviation Weather for KSFB

Weather Summary


The most recent METAR observation for SFB was updated at: 12:53 UTC
METAR for KSFB is not available. Closest METAR is for KORL
KSFB  (most recent observation was updatred at 30:05 UTC)
030053Z 15010KT 10SM VCTS CLR 26/22 A2997 RMK AO2 LTG DSNT S-NW SLP147 T02610217

KORL  (14.8 nm NE)   (most recent observation was updated at 30:05 UTC)
030053Z 14010KT 10SM -TSRA FEW065 BKN110 27/22 A2997 RMK AO2 LTG DSNT ALQDS RAB46 TSB26E41B53 SLP149 P0000 T02670222

KMCO  (21.2 nm NE)   (most recent observation was updated at 30:05 UTC)
030053Z 14009KT 7SM TSRA SCT045CB BKN110 OVC200 26/22 A2997 RMK AO2 RAB38 TSB12 SLP148 CONS LTGICCCCGCA S-W-N TS S-W-N MOV NE P0000 T02610217

TAF for KSFB is not available.
KSFB
AMD 030007Z 0300/0324 14010KT P6SM BKN250 FM030100 15008KT P6SM VCTS SCT040CB BKN100 TEMPO 0301/0303 VRB15G30KT 1SM +TSRA BKN020CB FM030300 18005KT P6SM SCT080 BKN250 FM031500 24010KT P6SM SCT025 FM031800 24009KT P6SM VCTS BKN035CB

KMCO  (21.2 nm NE)   (most recent observation was updatred at 30:00 UTC)
AMD 030005Z 0300/0324 12010KT P6SM VCTS FEW040CB SCT060 BKN250 TEMPO 0301/0303 VRB15G30KT 1SM +TSRA BKN020CB FM030300 18004KT P6SM BKN250 FM031500 23010KT P6SM SCT025 FM031800 24009KT P6SM VCTS BKN035CB


KDAB  (25.9 nm SW)   (most recent observation was updatred at 22:33 UTC)
022334Z 0300/0324 12008KT P6SM FEW060 SCT090 SCT250 FM030200 19004KT P6SM BKN250 FM031500 23010KT P6SM SCT025 FM032000 24009KT P6SM VCTS BKN035CB
GlobalAir.com is loading additional information.
 Current Weather at SFB
80.0 F° (26.7 C°)

Southeast winds at 11.5 mph
Pressure:
29.95 in
Humidity:
74%
Wind:
Southeast at 11.5 mph
Dew Point:
71.1 F° (21.7 C°)
Visibility:
10.00 mi
SFB NOAA Radar




Find All Airport Services Find A Hotel Find A Rental Car Find A Golf Course Find A Restaurant $100 Hamburger



Airport Weather Forecast for KSFB

Translated METAR for KSFB (0053 UTC)
METAR:
KSFB 030053Z 15010KT 10SM VCTS CLR 26/22 A2997 RMK AO2 LTG DSNT S-NW SLP147 T02610217
Conditions at:
KSFB (Orlando Sanford Intl, FL) observed 0053 UTC 02 May 2016
Temperature:
26°C (78.8°F)
Dewpoint:
22°C (71.6°F) [RH = 78.6]
Pressure:
29.97 inches Hg (1014.9 mb)
pressure at sea level is 147 in Hg
Winds:
from the SSE (150 degrees) at 11.5 mph (10 knots: 5.1 m/s)
Visibility:
10 mile(s)
Ceiling:
at least 12,000 feet AGL
Clouds:
Clear below 12,000 feet AGL
Remarks:
site is automated and HAS a precipitation sensor

Translated TAF for KSFB (Orlando Sanford Intl, FL) (0007 UTC)
TAF text:
KSFB 030007Z 0300/0324 14010KT P6SM BKN250
Forecast period:
Tuesday May 03 2016 00:00 UTC - Tuesday May 03 2016 24:00 UTC
Forecast type:
FROM: standard forecast or significant change
Winds:
from the SE (140 degrees) at 11.5 mph (10 knots: 5.1 m/s)
Visibility:
6 or more mile(s) (9.7+ km)
Ceiling:
25,000 feet AGL
Clouds:
Broken Cloud Cover at 25,000 feet AGL
Weather:
no significant weather observed at this time
TAF text:
FM030100 15008KT P6SM VCTS SCT040CB BKN100
Forecast period:
Tuesday May 03 2016 01:00 UTC - Tuesday May 03 2016 03:00 UTC
Forecast type:
FROM: standard forecast or significant change
Winds:
from the SSE (150 degrees) at 9.2 mph (8 knots: 4.1 m/s)
Visibility:
6 or more mile(s) (9.7+ km)
Ceiling:
10,000 feet AGL
Clouds:
Broken Cloud Cover at 10,000 feet AGL
Weather:
Moderate In Vicinity Thunderstorm
TAF text:
0301/0303 VRB15G30KT 1SM +TSRA BKN020CB
Forecast period:
Wednesday May 04 2016 01:00 UTC - Wednesday May 04 2016 03:00 UTC
Forecast type:
FROM: standard forecast or significant change
Winds:
variable wind direction at 17.3 mph (15 knots: 7.7 m/s)
gusting to 34.5 mph (30 knots: 15.4 m/s)
Visibility:
1 mile(s) (1.6 km)
Ceiling:
Clouds:
Weather:
Heavy Thunderstorm Rain
TAF text:
FM030300 18005KT P6SM SCT080 BKN250
Forecast period:
Tuesday May 03 2016 03:00 UTC - Tuesday May 03 2016 15:00 UTC
Forecast type:
FROM: standard forecast or significant change
Winds:
from the S (180 degrees) at 5.8 mph (5 knots: 2.6 m/s)
Visibility:
6 or more mile(s) (9.7+ km)
Ceiling:
25,000 feet AGL
Clouds:
Scattered Clouds at 8,000 feet AGL
Broken Cloud Cover at 25,000 feet AGL
Weather:
no significant weather observed at this time
TAF text:
FM031500 24010KT P6SM SCT025
Forecast period:
Tuesday May 03 2016 15:00 UTC - Tuesday May 03 2016 18:00 UTC
Forecast type:
FROM: standard forecast or significant change
Winds:
from the WSW (240 degrees) at 11.5 mph (10 knots: 5.1 m/s)
Visibility:
6 or more mile(s) (9.7+ km)
Ceiling:
at least 12,000 feet AGL
Clouds:
Scattered Clouds at 2,500 feet AGL
Weather:
no significant weather observed at this time
TAF text:
FM031800 24009KT P6SM VCTS BKN035CB
Forecast period:
Tuesday May 03 2016 18:00 UTC - Tuesday May 03 2016 24:00 UTC
Forecast type:
FROM: standard forecast or significant change
Winds:
from the WSW (240 degrees) at 10.4 mph (9 knots: 4.6 m/s)
Visibility:
6 or more mile(s) (9.7+ km)
Ceiling:
Clouds:
Weather:
Moderate In Vicinity Thunderstorm
FBO's on the Field
FBO Company Facility Photos Services Transportation Aviation Fuel Prices: Prices include tax
Catering Weather Repair Courtesy Rental Type 100LL JetA JetA+ MOGAS 8087
 
StarPort

StarPort logo
Currently rated 5 by 7 people
FS:
Last Updated: May-02
Login to update fuel prices
SS:
Contact StarPortMore FBO Information
 
Million Air Sanford

Currently rated 5 by 3 people
FS:Ascent
Last Updated: Apr-12
Login to update fuel prices
SS:
Contact Million Air SanfordMore FBO Information
 
Add another FBO Facility Photos Catering Weather Repair Courtesy Rental Type 100LL JetA JetA+ MOGAS 8087
Services Transportation Aviation Fuel Prices: Prices include tax


model-print
model-print
model-print
model-print